Time;durP1;ratioP1;P1;durP2;ratioP2;P2;SDS_P1;SDS_P2;PMS_P1;PMS_P2;Temp;Humidity;BMP_temperature;BMP_pressure;BME280_temperature;BME280_humidity;BME280_pressure;Samples;Min_cycle;Max_cycle;Signal;HPM_P1;HPM_P2
2023/09/30 00:01:18;;;;;;;20.65;8.93;;;22.50;65.30;;;;;;6213917;23;20001;-77
2023/09/30 00:03:44;;;;;;;25.52;8.68;;;22.40;65.00;;;;;;6187295;23;20094;-76
2023/09/30 00:06:10;;;;;;;14.13;8.75;;;22.50;65.20;;;;;;6214084;23;19996;-75
2023/09/30 00:08:38;;;;;;;16.92;8.70;;;22.40;65.10;;;;;;6214124;22;20095;-76
2023/09/30 00:11:05;;;;;;;13.70;8.80;;;22.50;64.90;;;;;;6188304;23;20012;-73
2023/09/30 00:13:31;;;;;;;13.40;8.10;;;22.40;65.70;;;;;;6215740;23;20058;-76
2023/09/30 00:15:57;;;;;;;18.02;8.40;;;22.40;64.90;;;;;;6215754;23;20001;-75
2023/09/30 00:18:23;;;;;;;17.05;8.18;;;22.40;65.10;;;;;;6215846;23;20434;-76
2023/09/30 00:20:49;;;;;;;14.98;8.30;;;22.30;64.90;;;;;;6215743;23;20044;-76
2023/09/30 00:23:15;;;;;;;15.65;8.18;;;22.40;65.00;;;;;;6215830;23;20079;-77
2023/09/30 00:25:41;;;;;;;17.35;7.85;;;22.30;64.70;;;;;;6215711;23;19996;-76
2023/09/30 00:28:07;;;;;;;14.18;8.43;;;22.30;64.80;;;;;;6215493;23;20059;-77
2023/09/30 00:30:33;;;;;;;17.05;7.90;;;22.30;64.60;;;;;;6215450;23;20365;-76
2023/09/30 00:32:59;;;;;;;14.25;8.38;;;22.20;64.70;;;;;;6189281;23;20331;-75
2023/09/30 00:35:25;;;;;;;18.92;8.23;;;22.20;64.80;;;;;;6215581;23;20007;-77
2023/09/30 00:37:51;;;;;;;16.58;8.43;;;22.10;64.80;;;;;;6215536;23;20316;-74
2023/09/30 00:40:17;;;;;;;13.93;8.65;;;22.10;65.20;;;;;;6216213;23;19997;-75
2023/09/30 00:42:43;;;;;;;12.95;7.63;;;22.10;64.90;;;;;;6215850;23;20000;-75
2023/09/30 00:45:10;;;;;;;12.25;7.55;;;22.10;65.10;;;;;;6215767;23;20119;-76
2023/09/30 00:47:36;;;;;;;9.32;7.00;;;22.10;64.70;;;;;;6215707;23;20326;-76
2023/09/30 00:50:04;;;;;;;13.07;7.03;;;22.10;64.40;;;;;;6215547;23;20009;-75
2023/09/30 00:52:33;;;;;;;19.63;8.13;;;22.10;64.40;;;;;;6216425;23;20007;-74
2023/09/30 00:54:59;;;;;;;14.55;7.18;;;22.10;64.30;;;;;;6216209;23;20001;-75
2023/09/30 00:57:25;;;;;;;16.10;6.85;;;22.10;64.20;;;;;;6215209;23;20059;-76
2023/09/30 00:59:51;;;;;;;10.93;6.85;;;22.10;64.20;;;;;;6215521;23;20000;-75
2023/09/30 01:02:22;;;;;;;14.93;7.32;;;22.10;64.10;;;;;;6215555;23;20004;-76
2023/09/30 01:04:49;;;;;;;13.68;7.38;;;22.10;64.30;;;;;;6215885;23;20005;-76
2023/09/30 01:07:14;;;;;;;12.73;7.80;;;22.10;64.30;;;;;;6215453;23;20008;-76
2023/09/30 01:09:41;;;;;;;13.30;7.25;;;22.00;64.30;;;;;;6215180;23;20427;-75
2023/09/30 01:12:08;;;;;;;13.00;7.45;;;22.00;64.30;;;;;;6215583;23;20005;-76
2023/09/30 01:14:35;;;;;;;16.50;7.88;;;22.00;64.40;;;;;;6215435;23;20008;-77
2023/09/30 01:17:01;;;;;;;13.52;7.50;;;22.00;64.30;;;;;;6215284;23;20066;-75
2023/09/30 01:19:27;;;;;;;14.63;8.40;;;22.00;64.30;;;;;;6215171;23;20334;-75
2023/09/30 01:21:59;;;;;;;17.08;8.20;;;21.90;64.30;;;;;;6215150;23;20000;-77
2023/09/30 01:24:26;;;;;;;15.88;7.60;;;21.90;64.50;;;;;;6215453;23;20001;-76
2023/09/30 01:26:52;;;;;;;15.80;7.43;;;21.90;64.50;;;;;;6215439;23;20004;-76
2023/09/30 01:29:18;;;;;;;9.48;6.90;;;21.90;64.40;;;;;;6214980;23;20017;-76
2023/09/30 01:31:47;;;;;;;21.42;7.80;;;21.90;64.10;;;;;;6215317;23;20004;-76
2023/09/30 01:34:15;;;;;;;16.35;7.93;;;21.80;64.20;;;;;;6215333;23;20054;-76
2023/09/30 01:36:41;;;;;;;16.52;7.28;;;21.80;64.30;;;;;;6215093;23;20005;-75
2023/09/30 01:39:07;;;;;;;13.80;7.20;;;21.70;64.10;;;;;;6215007;23;20387;-76
2023/09/30 01:41:33;;;;;;;12.25;7.13;;;21.70;64.40;;;;;;6215207;23;20000;-77
2023/09/30 01:43:58;;;;;;;15.13;7.60;;;21.60;64.30;;;;;;6215187;23;20072;-75
2023/09/30 01:46:24;;;;;;;11.15;7.53;;;21.60;64.30;;;;;;6215529;23;20008;-75
2023/09/30 01:48:50;;;;;;;13.82;8.07;;;21.60;64.40;;;;;;6214772;23;20342;-75
2023/09/30 01:51:15;;;;;;;16.67;7.88;;;21.60;64.50;;;;;;6215103;23;20000;-76
2023/09/30 01:53:42;;;;;;;10.68;7.03;;;21.60;64.60;;;;;;6214832;23;20000;-74
2023/09/30 01:56:08;;;;;;;18.55;8.32;;;21.60;64.60;;;;;;6214795;23;20001;-75
2023/09/30 01:58:34;;;;;;;17.42;8.68;;;21.70;64.60;;;;;;6188189;23;20312;-75
2023/09/30 02:01:03;;;;;;;11.85;7.55;;;21.70;64.60;;;;;;6214745;23;20300;-75
2023/09/30 02:03:29;;;;;;;16.83;7.80;;;21.60;64.50;;;;;;6215251;23;20062;-75
2023/09/30 02:05:57;;;;;;;11.73;7.70;;;21.60;64.50;;;;;;6215238;23;20001;-75
2023/09/30 02:08:22;;;;;;;14.50;7.97;;;21.50;64.70;;;;;;6214548;23;20442;-75
2023/09/30 02:10:48;;;;;;;16.23;7.65;;;21.50;64.50;;;;;;6215033;23;20004;-75
2023/09/30 02:13:15;;;;;;;12.05;8.07;;;21.40;64.70;;;;;;6188167;23;20067;-75
2023/09/30 02:15:43;;;;;;;12.35;7.13;;;21.30;64.70;;;;;;6214753;23;20048;-74
2023/09/30 02:18:10;;;;;;;13.95;7.28;;;21.30;65.00;;;;;;6214820;23;20035;-75
2023/09/30 02:20:39;;;;;;;9.70;7.00;;;21.30;64.80;;;;;;6214790;23;20008;-76
2023/09/30 02:23:12;;;;;;;14.23;7.05;;;21.30;64.60;;;;;;6214433;23;20004;-75
2023/09/30 02:25:39;;;;;;;15.30;8.32;;;21.30;64.50;;;;;;6214482;23;20000;-75
2023/09/30 02:28:08;;;;;;;14.75;7.63;;;21.30;64.50;;;;;;6214970;23;20012;-76
2023/09/30 02:30:34;;;;;;;10.82;6.85;;;21.30;64.50;;;;;;6214762;23;19997;-76
2023/09/30 02:33:00;;;;;;;12.27;7.43;;;21.30;64.70;;;;;;6224652;23;20004;-76
2023/09/30 02:35:26;;;;;;;11.48;7.32;;;21.30;64.30;;;;;;6241108;23;19992;-76
2023/09/30 02:37:52;;;;;;;13.65;7.00;;;21.20;64.20;;;;;;6239027;23;20000;-75
2023/09/30 02:40:19;;;;;;;14.20;7.63;;;21.20;64.30;;;;;;6215357;23;20055;-75
2023/09/30 02:42:45;;;;;;;16.00;7.00;;;21.30;64.50;;;;;;6215869;23;20377;-76
2023/09/30 02:45:12;;;;;;;12.75;7.47;;;21.20;64.30;;;;;;6215560;23;20300;-75
2023/09/30 02:47:39;;;;;;;10.40;7.45;;;21.20;64.40;;;;;;6215545;23;20009;-76
2023/09/30 02:50:08;;;;;;;13.48;7.65;;;21.20;64.60;;;;;;6188600;23;20092;-76
2023/09/30 02:52:34;;;;;;;14.55;7.75;;;21.20;64.60;;;;;;6215391;23;20430;-75
2023/09/30 02:55:00;;;;;;;11.38;8.38;;;21.20;64.50;;;;;;6188965;23;20314;-76
2023/09/30 02:57:31;;;;;;;13.75;7.28;;;21.20;64.60;;;;;;6214952;23;20369;-77
2023/09/30 02:59:59;;;;;;;12.10;7.55;;;21.20;64.50;;;;;;6218677;23;20013;-76
2023/09/30 03:02:24;;;;;;;13.73;7.30;;;21.10;64.40;;;;;;6240532;23;19997;-75
2023/09/30 03:04:51;;;;;;;10.85;7.25;;;21.10;64.50;;;;;;6241528;23;20391;-74
2023/09/30 03:07:19;;;;;;;12.38;7.75;;;21.10;64.20;;;;;;6195041;23;20441;-76
2023/09/30 03:09:46;;;;;;;14.30;7.43;;;21.10;64.30;;;;;;6215309;23;20016;-75
2023/09/30 03:12:12;;;;;;;15.00;7.53;;;21.10;64.20;;;;;;6215639;23;20087;-76
2023/09/30 03:14:38;;;;;;;13.98;7.85;;;21.10;64.40;;;;;;6215141;23;20035;-74
2023/09/30 03:17:03;;;;;;;12.50;7.43;;;21.10;64.40;;;;;;6215075;23;20028;-76
2023/09/30 03:19:29;;;;;;;11.63;7.45;;;21.10;64.40;;;;;;6215828;23;20011;-76
2023/09/30 03:21:56;;;;;;;14.07;7.50;;;21.10;64.10;;;;;;6215105;23;20008;-76
2023/09/30 03:24:22;;;;;;;11.07;7.32;;;21.10;64.50;;;;;;6214533;23;20012;-76
2023/09/30 03:26:49;;;;;;;12.80;7.50;;;21.00;64.20;;;;;;6214615;23;20055;-76
2023/09/30 03:29:15;;;;;;;12.25;7.68;;;21.00;64.40;;;;;;6214376;23;20093;-77
2023/09/30 03:31:41;;;;;;;14.10;7.07;;;21.00;64.40;;;;;;6215028;23;20001;-75
2023/09/30 03:34:06;;;;;;;15.60;6.90;;;20.90;64.20;;;;;;6215656;23;20004;-75
2023/09/30 03:36:33;;;;;;;13.55;7.38;;;21.00;64.50;;;;;;6215459;23;20003;-76
2023/09/30 03:39:05;;;;;;;15.23;7.20;;;21.10;64.50;;;;;;6214871;23;20001;-75
2023/09/30 03:41:32;;;;;;;12.05;7.45;;;21.00;64.10;;;;;;6214545;23;20011;-77
2023/09/30 03:43:58;;;;;;;12.10;7.15;;;21.00;64.00;;;;;;6214702;23;20000;-76
2023/09/30 03:46:24;;;;;;;15.43;7.47;;;21.00;63.80;;;;;;6214571;23;19996;-75
2023/09/30 03:48:50;;;;;;;11.07;6.68;;;21.00;64.00;;;;;;6214087;23;20047;-75
2023/09/30 03:51:15;;;;;;;11.65;7.00;;;20.90;63.90;;;;;;6214846;23;19997;-78
2023/09/30 03:53:45;;;;;;;12.20;7.05;;;20.90;64.20;;;;;;6187861;23;20005;-75
2023/09/30 03:56:11;;;;;;;13.80;7.18;;;20.80;64.10;;;;;;6187953;23;20004;-76
2023/09/30 03:58:38;;;;;;;12.52;7.10;;;20.70;64.20;;;;;;6214171;23;20423;-76
2023/09/30 04:01:04;;;;;;;9.55;6.10;;;20.70;64.20;;;;;;6214452;23;20007;-75
2023/09/30 04:03:33;;;;;;;14.75;7.53;;;20.70;64.30;;;;;;6214520;23;20024;-76
2023/09/30 04:05:59;;;;;;;12.60;7.53;;;20.70;64.20;;;;;;6214425;23;20500;-75
2023/09/30 04:08:24;;;;;;;11.82;6.50;;;20.70;64.30;;;;;;6213897;23;20017;-76
2023/09/30 04:10:50;;;;;;;14.50;7.07;;;20.70;64.40;;;;;;6214516;23;20001;-75
2023/09/30 04:13:16;;;;;;;12.07;7.03;;;20.60;64.40;;;;;;6214093;23;20043;-75
2023/09/30 04:15:44;;;;;;;13.07;6.80;;;20.60;64.50;;;;;;6214224;23;20336;-75
2023/09/30 04:18:11;;;;;;;10.50;6.60;;;20.70;64.40;;;;;;6214165;23;20437;-77
2023/09/30 04:20:39;;;;;;;11.93;7.70;;;20.60;64.50;;;;;;6214060;23;20000;-76
2023/09/30 04:23:09;;;;;;;10.63;6.90;;;20.50;64.50;;;;;;6187363;23;20017;-76
2023/09/30 04:25:35;;;;;;;11.45;6.72;;;20.50;64.60;;;;;;6214363;23;20080;-76
2023/09/30 04:28:02;;;;;;;14.73;7.47;;;20.50;64.80;;;;;;6214278;23;20044;-75
2023/09/30 04:30:29;;;;;;;14.93;7.03;;;20.40;64.60;;;;;;6214070;23;20001;-76
2023/09/30 04:32:56;;;;;;;10.27;6.72;;;20.40;64.60;;;;;;6213469;23;20008;-77
2023/09/30 04:35:22;;;;;;;10.20;7.32;;;20.30;64.70;;;;;;6213955;23;20330;-76
2023/09/30 04:37:48;;;;;;;14.45;7.25;;;20.30;64.80;;;;;;6187275;23;20005;-76
2023/09/30 04:40:19;;;;;;;12.43;7.20;;;20.30;64.70;;;;;;6223377;23;20000;-76
2023/09/30 04:42:46;;;;;;;12.50;7.13;;;20.30;65.10;;;;;;6224396;23;19997;-76
2023/09/30 04:45:16;;;;;;;10.18;7.13;;;20.30;64.80;;;;;;6224994;23;20001;-76
2023/09/30 04:47:44;;;;;;;10.15;7.10;;;20.20;64.80;;;;;;6214003;23;20001;-75
2023/09/30 04:50:11;;;;;;;13.00;7.45;;;20.10;64.90;;;;;;6213842;23;20001;-76
2023/09/30 04:52:38;;;;;;;13.40;7.25;;;20.10;65.40;;;;;;6214229;23;19996;-76
2023/09/30 04:55:05;;;;;;;12.75;7.28;;;20.10;65.40;;;;;;6213583;23;20000;-75
2023/09/30 04:57:31;;;;;;;14.48;7.13;;;20.00;65.40;;;;;;6215384;23;20005;-75
2023/09/30 04:59:58;;;;;;;11.85;7.25;;;20.00;65.40;;;;;;6215496;23;20450;-75
2023/09/30 05:02:24;;;;;;;11.40;7.05;;;20.00;66.00;;;;;;6215594;23;20030;-77
2023/09/30 05:04:50;;;;;;;13.10;6.45;;;20.00;65.70;;;;;;6215348;23;20008;-76
2023/09/30 05:07:16;;;;;;;16.80;7.43;;;20.00;65.60;;;;;;6188737;23;20445;-75
2023/09/30 05:09:42;;;;;;;14.75;7.18;;;20.00;65.50;;;;;;6215038;23;20023;-76
2023/09/30 05:12:09;;;;;;;13.60;7.03;;;20.00;65.70;;;;;;6188693;23;20308;-76
2023/09/30 05:14:36;;;;;;;12.25;7.47;;;20.00;65.50;;;;;;6215586;23;20004;-75
2023/09/30 05:17:04;;;;;;;10.65;7.07;;;20.00;65.80;;;;;;6215319;23;20000;-76
2023/09/30 05:19:31;;;;;;;13.35;7.70;;;20.00;65.70;;;;;;6215705;23;20001;-76
2023/09/30 05:21:57;;;;;;;10.52;7.50;;;20.00;65.50;;;;;;6188473;23;20351;-76
2023/09/30 05:24:23;;;;;;;15.98;7.97;;;20.00;65.80;;;;;;6215138;23;19997;-77
2023/09/30 05:26:49;;;;;;;14.68;7.65;;;19.90;65.80;;;;;;6188146;23;20019;-75
2023/09/30 05:29:14;;;;;;;15.00;8.48;;;19.80;66.00;;;;;;6214972;23;20012;-76
2023/09/30 05:31:40;;;;;;;12.70;6.97;;;19.80;66.10;;;;;;6214831;23;20411;-75
2023/09/30 05:34:06;;;;;;;16.65;7.65;;;19.90;66.10;;;;;;6188084;23;20008;-76
2023/09/30 05:36:31;;;;;;;11.13;7.53;;;19.90;65.90;;;;;;6188574;23;20008;-76
2023/09/30 05:38:57;;;;;;;20.58;8.60;;;19.90;65.90;;;;;;6215086;23;20027;-77
2023/09/30 05:41:23;;;;;;;14.13;7.90;;;20.00;65.90;;;;;;6215033;23;20045;-76
2023/09/30 05:43:49;;;;;;;13.23;7.97;;;20.00;65.70;;;;;;6188445;23;20012;-77
2023/09/30 05:46:15;;;;;;;14.27;8.77;;;20.00;65.70;;;;;;6215195;23;20004;-77
2023/09/30 05:48:41;;;;;;;15.50;8.27;;;20.10;65.60;;;;;;6214910;23;20019;-76
2023/09/30 05:51:07;;;;;;;14.57;8.07;;;20.10;65.60;;;;;;6214758;23;20091;-77
2023/09/30 05:53:33;;;;;;;17.27;8.52;;;20.00;65.50;;;;;;6214911;23;20399;-77
2023/09/30 05:55:59;;;;;;;10.80;7.57;;;20.00;65.50;;;;;;6214834;23;20342;-78
2023/09/30 05:58:26;;;;;;;12.75;7.72;;;20.10;65.60;;;;;;6215243;23;20000;-76
2023/09/30 06:00:53;;;;;;;14.55;8.48;;;20.20;65.30;;;;;;6216086;23;20079;-76
2023/09/30 06:03:21;;;;;;;15.57;8.80;;;20.30;64.90;;;;;;6223412;23;19988;-77
2023/09/30 06:05:48;;;;;;;13.88;8.05;;;20.40;64.90;;;;;;6239422;23;20000;-76
2023/09/30 06:08:14;;;;;;;14.88;7.90;;;20.50;64.60;;;;;;6238419;23;20016;-76
2023/09/30 06:10:44;;;;;;;15.32;9.35;;;20.70;64.40;;;;;;6218126;23;20043;-78
2023/09/30 06:13:11;;;;;;;12.00;7.97;;;20.90;64.00;;;;;;6188924;23;20040;-76
2023/09/30 06:15:41;;;;;;;10.82;7.68;;;21.20;63.90;;;;;;6189020;23;20012;-77
2023/09/30 06:18:07;;;;;;;13.68;7.85;;;21.50;63.70;;;;;;6216215;23;20001;-77
2023/09/30 06:20:33;;;;;;;11.57;7.22;;;21.80;63.20;;;;;;6216147;23;20434;-78
2023/09/30 06:23:02;;;;;;;17.98;7.50;;;21.90;62.70;;;;;;6215871;23;20004;-78
2023/09/30 06:25:30;;;;;;;11.70;7.20;;;22.00;62.50;;;;;;6216057;23;20330;-78
2023/09/30 06:27:56;;;;;;;14.55;7.40;;;22.20;62.40;;;;;;6216128;23;20013;-76
2023/09/30 06:30:29;;;;;;;12.85;7.07;;;22.30;61.80;;;;;;6216069;23;20308;-78
2023/09/30 06:32:55;;;;;;;16.00;7.30;;;22.30;61.80;;;;;;6215345;23;20449;-71
2023/09/30 06:35:23;;;;;;;14.60;7.00;;;22.50;61.90;;;;;;6188181;23;20166;-78
2023/09/30 06:37:48;;;;;;;14.10;6.90;;;22.70;61.60;;;;;;6215573;23;20005;-77
2023/09/30 06:40:14;;;;;;;16.08;6.72;;;22.90;61.00;;;;;;6188630;23;20308;-78
2023/09/30 06:42:40;;;;;;;10.10;6.88;;;23.00;60.90;;;;;;6215481;23;20320;-77
2023/09/30 06:45:07;;;;;;;15.93;7.22;;;23.20;60.60;;;;;;6215387;23;20011;-77
2023/09/30 06:47:34;;;;;;;12.50;7.45;;;23.30;59.90;;;;;;6214878;23;20032;-78
2023/09/30 06:50:16;;;;;;;12.43;6.93;;;23.40;60.00;;;;;;6215044;23;20009;-79
2023/09/30 06:52:45;;;;;;;13.05;7.30;;;23.50;59.80;;;;;;6215323;23;20067;-79
2023/09/30 06:55:13;;;;;;;14.38;7.60;;;23.60;59.50;;;;;;6214912;23;20074;-77
2023/09/30 06:57:40;;;;;;;11.57;7.00;;;23.70;59.50;;;;;;6215039;23;20028;-79
2023/09/30 07:00:11;;;;;;;13.15;7.43;;;23.80;59.40;;;;;;6215210;23;20001;-78
2023/09/30 07:02:38;;;;;;;16.27;7.35;;;23.80;59.40;;;;;;6214933;23;20055;-79
2023/09/30 07:05:12;;;;;;;13.90;7.35;;;23.90;59.20;;;;;;6214775;23;20000;-77
2023/09/30 07:07:39;;;;;;;12.10;7.18;;;23.90;59.40;;;;;;6214622;23;20411;-75
2023/09/30 07:10:06;;;;;;;12.38;7.05;;;23.90;59.10;;;;;;6214483;23;20047;-79
2023/09/30 07:12:35;;;;;;;15.43;7.72;;;24.00;59.20;;;;;;6214222;23;20068;-78
2023/09/30 07:15:02;;;;;;;15.18;7.30;;;24.10;59.20;;;;;;6214944;23;20005;-77
2023/09/30 07:17:28;;;;;;;13.05;7.53;;;24.10;59.00;;;;;;6216331;23;20004;-78
2023/09/30 07:19:53;;;;;;;10.93;6.90;;;24.10;58.90;;;;;;6214244;23;20343;-78
2023/09/30 07:22:19;;;;;;;13.52;7.45;;;24.20;58.70;;;;;;6214231;23;20084;-78
2023/09/30 07:24:45;;;;;;;15.25;7.00;;;24.20;58.60;;;;;;6187581;23;20009;-78
2023/09/30 07:27:11;;;;;;;10.65;7.15;;;24.10;58.70;;;;;;6214282;23;20019;-76
2023/09/30 07:29:37;;;;;;;11.93;7.90;;;24.10;58.70;;;;;;6214657;23;20008;-79
2023/09/30 07:32:03;;;;;;;15.55;7.72;;;24.00;58.70;;;;;;6214456;23;20001;-79
2023/09/30 07:34:28;;;;;;;12.50;7.00;;;24.00;59.00;;;;;;6214679;23;20167;-78
2023/09/30 07:36:55;;;;;;;13.57;7.07;;;24.00;58.70;;;;;;6187572;23;20091;-78
2023/09/30 07:39:21;;;;;;;14.85;6.60;;;24.00;58.60;;;;;;6214152;23;20356;-77
2023/09/30 07:41:46;;;;;;;11.30;6.88;;;23.90;58.70;;;;;;6214093;23;20079;-77
2023/09/30 07:44:12;;;;;;;12.55;7.85;;;24.00;58.80;;;;;;6213956;23;20025;-79
2023/09/30 07:46:38;;;;;;;13.98;7.30;;;24.00;58.80;;;;;;6214080;23;20051;-78
2023/09/30 07:49:04;;;;;;;11.82;7.07;;;24.00;58.80;;;;;;6213735;23;20019;-80
2023/09/30 07:51:30;;;;;;;14.13;7.50;;;23.90;58.70;;;;;;6213909;23;20497;-77
2023/09/30 07:53:56;;;;;;;12.20;7.10;;;23.90;58.90;;;;;;6213931;23;20028;-78
2023/09/30 07:56:23;;;;;;;13.48;7.05;;;23.80;58.90;;;;;;6214450;23;20008;-79
2023/09/30 07:58:49;;;;;;;15.13;7.13;;;23.70;59.10;;;;;;6213669;23;20009;-78
2023/09/30 08:01:15;;;;;;;14.50;6.93;;;23.70;59.20;;;;;;6213980;23;20009;-78
2023/09/30 08:03:41;;;;;;;15.68;7.05;;;23.70;59.30;;;;;;6213783;23;20010;-78
2023/09/30 08:06:09;;;;;;;14.50;7.18;;;23.80;59.30;;;;;;6213903;23;20001;-78
2023/09/30 08:08:36;;;;;;;13.23;6.82;;;23.80;59.40;;;;;;6213765;23;20043;-78
2023/09/30 08:11:02;;;;;;;14.80;7.43;;;23.70;59.30;;;;;;6213806;23;20040;-78
2023/09/30 08:13:29;;;;;;;17.13;9.77;;;23.60;59.50;;;;;;6187073;23;20413;-78
2023/09/30 08:15:55;;;;;;;14.73;7.05;;;23.60;59.50;;;;;;6214186;23;20001;-77
2023/09/30 08:18:21;;;;;;;10.43;7.13;;;23.60;59.50;;;;;;6214161;23;20005;-79
2023/09/30 08:20:48;;;;;;;12.13;6.82;;;23.50;59.40;;;;;;6214458;23;20007;-77
2023/09/30 08:23:14;;;;;;;22.38;7.32;;;23.50;59.60;;;;;;6188031;23;20009;-79
2023/09/30 08:25:39;;;;;;;12.13;7.00;;;23.50;59.90;;;;;;6213959;23;20415;-78
2023/09/30 08:28:05;;;;;;;14.30;6.85;;;23.50;59.90;;;;;;6214315;23;20016;-79
2023/09/30 08:30:33;;;;;;;14.32;7.50;;;23.50;59.80;;;;;;6214260;23;20374;-78
2023/09/30 08:32:59;;;;;;;11.68;7.13;;;23.50;59.80;;;;;;6216134;23;20004;-80
2023/09/30 08:35:25;;;;;;;14.80;7.30;;;23.60;60.40;;;;;;6215894;23;20454;-78
2023/09/30 08:37:50;;;;;;;10.57;6.20;;;23.70;60.00;;;;;;6189367;23;20001;-78
2023/09/30 08:40:22;;;;;;;13.18;6.65;;;23.70;59.80;;;;;;6216203;23;20012;-78
2023/09/30 08:42:52;;;;;;;12.43;6.45;;;23.80;59.70;;;;;;6216232;23;20015;-79
2023/09/30 08:45:19;;;;;;;12.82;9.27;;;23.80;59.80;;;;;;6216351;23;20075;-78
2023/09/30 08:47:47;;;;;;;11.68;6.97;;;23.90;59.90;;;;;;6215622;23;20012;-78
2023/09/30 08:50:14;;;;;;;11.70;6.80;;;23.90;59.60;;;;;;6216370;23;20338;-79
2023/09/30 08:52:42;;;;;;;14.98;6.32;;;23.90;59.80;;;;;;6215775;23;20100;-78
2023/09/30 08:55:08;;;;;;;11.05;6.72;;;23.90;59.70;;;;;;6216132;23;20004;-80
2023/09/30 08:57:40;;;;;;;14.23;6.57;;;23.90;59.60;;;;;;6189026;23;20008;-78
2023/09/30 09:00:11;;;;;;;9.05;6.57;;;23.90;59.60;;;;;;6216063;23;20438;-78
2023/09/30 09:02:37;;;;;;;12.55;6.40;;;24.00;59.80;;;;;;6216587;23;20135;-79
2023/09/30 09:05:03;;;;;;;12.05;5.97;;;24.00;59.90;;;;;;6216002;23;20061;-78
2023/09/30 09:07:30;;;;;;;21.00;6.82;;;24.00;59.70;;;;;;6216695;23;20005;-79
2023/09/30 09:10:13;;;;;;;13.32;6.78;;;24.10;59.80;;;;;;6228567;23;20008;-77
2023/09/30 09:12:39;;;;;;;13.43;6.28;;;24.10;59.00;;;;;;6231271;23;20028;-77
2023/09/30 09:15:07;;;;;;;14.32;6.72;;;24.20;59.50;;;;;;6218956;23;20016;-77
2023/09/30 09:17:43;;;;;;;12.30;6.13;;;24.30;59.40;;;;;;6216068;23;20004;-78
2023/09/30 09:20:11;;;;;;;16.40;7.25;;;24.30;59.50;;;;;;6189460;23;20020;-77
2023/09/30 09:22:43;;;;;;;9.70;6.40;;;24.40;59.00;;;;;;6216788;23;20015;-78
2023/09/30 09:25:10;;;;;;;12.95;6.63;;;24.50;59.20;;;;;;6216180;23;20012;-79
2023/09/30 09:27:37;;;;;;;9.57;6.38;;;24.50;59.10;;;;;;6216334;23;19997;-77
2023/09/30 09:30:20;;;;;;;14.63;7.20;;;24.60;59.10;;;;;;6215760;23;20062;-78
2023/09/30 09:33:02;;;;;;;11.15;6.78;;;24.70;58.70;;;;;;6216314;23;20023;-79
2023/09/30 09:35:30;;;;;;;10.82;6.25;;;24.80;58.80;;;;;;6216576;23;20071;-78
2023/09/30 09:37:59;;;;;;;10.00;6.43;;;24.80;58.70;;;;;;6219501;23;20050;-78
2023/09/30 09:40:28;;;;;;;12.07;6.43;;;24.80;58.80;;;;;;6217937;23;20123;-78
2023/09/30 09:42:57;;;;;;;9.63;6.03;;;24.90;58.90;;;;;;6215787;23;20001;-79
2023/09/30 09:45:24;;;;;;;9.20;6.07;;;25.00;58.70;;;;;;6215772;23;20028;-79
2023/09/30 09:47:51;;;;;;;11.07;6.50;;;25.00;58.60;;;;;;6215637;23;20000;-79
2023/09/30 09:50:21;;;;;;;13.00;6.40;;;25.10;58.50;;;;;;6215746;23;20406;-78
2023/09/30 09:52:51;;;;;;;11.95;6.75;;;25.10;58.00;;;;;;6216272;23;20004;-79
2023/09/30 09:55:22;;;;;;;15.82;6.80;;;25.20;57.90;;;;;;6188986;23;20418;-77
2023/09/30 09:57:49;;;;;;;8.77;6.60;;;25.30;57.90;;;;;;6215507;23;20490;-79
2023/09/30 10:00:18;;;;;;;12.05;6.80;;;25.40;57.90;;;;;;6215840;23;20068;-79
2023/09/30 10:02:48;;;;;;;11.35;6.25;;;25.50;57.80;;;;;;6215251;23;20001;-77
2023/09/30 10:05:15;;;;;;;11.73;7.60;;;25.50;57.30;;;;;;6215795;23;20000;-77
2023/09/30 10:08:10;;;;;;;14.57;6.93;;;25.60;57.60;;;;;;6214905;23;20084;-76
2023/09/30 10:10:37;;;;;;;17.75;7.13;;;25.70;57.60;;;;;;6214196;23;20013;-77
2023/09/30 10:13:03;;;;;;;13.27;7.00;;;25.80;57.60;;;;;;6215680;23;20068;-79
2023/09/30 10:15:31;;;;;;;14.63;7.00;;;25.80;57.40;;;;;;6188937;23;20012;-79
2023/09/30 10:18:07;;;;;;;13.50;6.25;;;25.90;57.50;;;;;;6215216;23;20001;-79
2023/09/30 10:20:41;;;;;;;11.18;6.20;;;25.90;57.30;;;;;;6215222;23;20009;-79
2023/09/30 10:23:33;;;;;;;15.82;6.80;;;26.00;57.30;;;;;;6215302;23;20435;-79
2023/09/30 10:26:07;;;;;;;12.00;6.60;;;26.10;56.70;;;;;;6215293;23;20005;-79
2023/09/30 10:28:49;;;;;;;11.57;6.63;;;26.20;57.10;;;;;;6215149;23;20009;-78
2023/09/30 10:31:24;;;;;;;10.13;6.65;;;26.20;57.10;;;;;;6215065;23;19997;-79
2023/09/30 10:34:04;;;;;;;15.27;6.80;;;26.30;56.90;;;;;;6214891;23;20011;-79
2023/09/30 10:36:32;;;;;;;13.25;7.05;;;26.40;55.80;;;;;;6215872;23;20430;-80
2023/09/30 10:38:58;;;;;;;11.07;6.38;;;26.50;56.40;;;;;;6216608;23;20027;-79
2023/09/30 10:41:45;;;;;;;12.05;6.53;;;26.50;56.20;;;;;;6215251;23;19997;-80
2023/09/30 10:44:26;;;;;;;15.48;7.22;;;26.60;56.00;;;;;;6215146;23;20007;-79
2023/09/30 10:47:21;;;;;;;9.35;6.45;;;26.70;55.10;;;;;;6214333;23;20013;-79
2023/09/30 10:49:47;;;;;;;11.35;6.78;;;26.80;54.80;;;;;;6214368;23;20013;-78
2023/09/30 10:52:22;;;;;;;12.88;6.88;;;26.80;55.10;;;;;;6215221;23;20008;-79
2023/09/30 10:54:49;;;;;;;9.88;6.10;;;26.90;54.60;;;;;;6214531;23;20070;-79
2023/09/30 10:57:29;;;;;;;14.98;6.72;;;26.90;54.70;;;;;;6214779;23;20000;-79
2023/09/30 11:00:16;;;;;;;20.75;8.00;;;27.00;53.80;;;;;;6213954;23;20374;-79
2023/09/30 11:02:51;;;;;;;10.38;5.75;;;27.10;53.80;;;;;;6214161;23;20008;-80
2023/09/30 11:05:18;;;;;;;10.15;6.45;;;27.20;53.50;;;;;;6214474;23;20013;-80
2023/09/30 11:07:47;;;;;;;11.75;6.20;;;27.30;53.30;;;;;;6214159;23;20016;-78
2023/09/30 11:10:16;;;;;;;13.85;6.80;;;27.30;53.30;;;;;;6214244;23;20004;-80
2023/09/30 11:12:54;;;;;;;12.43;6.30;;;27.30;53.50;;;;;;6214099;23;20032;-79
2023/09/30 11:15:20;;;;;;;19.52;6.03;;;27.40;52.90;;;;;;6215024;23;20019;-80
2023/09/30 11:17:45;;;;;;;12.55;6.50;;;27.40;52.50;;;;;;6188173;23;20035;-79
2023/09/30 11:20:11;;;;;;;10.40;6.47;;;27.50;52.60;;;;;;6214908;23;20001;-79
2023/09/30 11:22:39;;;;;;;11.80;6.68;;;27.50;52.40;;;;;;6214904;23;20001;-78
2023/09/30 11:25:05;;;;;;;14.15;6.07;;;27.50;52.20;;;;;;6215761;23;20009;-79
2023/09/30 11:27:31;;;;;;;12.50;6.38;;;27.60;52.10;;;;;;6225851;23;20019;-79
2023/09/30 11:29:58;;;;;;;14.55;6.28;;;27.70;52.10;;;;;;6231024;23;20076;-78
2023/09/30 11:32:28;;;;;;;13.60;7.03;;;27.70;51.90;;;;;;6202422;23;20423;-79
2023/09/30 11:34:54;;;;;;;11.90;6.60;;;27.80;52.00;;;;;;6216678;23;20020;-80
2023/09/30 11:37:21;;;;;;;13.43;6.88;;;27.80;52.00;;;;;;6188481;23;20040;-78
2023/09/30 11:39:47;;;;;;;12.20;6.75;;;27.90;51.70;;;;;;6188335;23;20015;-79
2023/09/30 11:42:17;;;;;;;16.83;6.95;;;27.90;51.50;;;;;;6187773;23;20399;-79
2023/09/30 11:44:47;;;;;;;18.13;6.88;;;28.00;51.30;;;;;;6215324;23;20001;-79
2023/09/30 11:47:14;;;;;;;11.65;5.90;;;28.00;51.40;;;;;;6214899;23;20005;-79
2023/09/30 11:49:44;;;;;;;9.43;6.28;;;28.00;51.40;;;;;;6214603;23;20018;-80
2023/09/30 11:52:14;;;;;;;15.65;7.30;;;28.10;51.60;;;;;;6215501;23;20067;-80
2023/09/30 11:54:45;;;;;;;12.95;6.82;;;28.20;51.20;;;;;;6229910;23;20005;-78
2023/09/30 11:57:18;;;;;;;13.60;6.80;;;28.20;51.00;;;;;;6237483;23;20004;-78
2023/09/30 11:59:47;;;;;;;16.42;7.35;;;28.30;50.60;;;;;;6234615;23;20004;-78
2023/09/30 12:02:14;;;;;;;12.48;6.35;;;28.40;50.80;;;;;;6191536;23;20082;-79
2023/09/30 12:04:44;;;;;;;14.10;6.78;;;28.50;50.60;;;;;;6188917;23;20367;-79
2023/09/30 12:07:10;;;;;;;13.50;6.38;;;28.50;50.70;;;;;;6217010;23;20001;-79
2023/09/30 12:09:37;;;;;;;10.38;6.35;;;28.50;50.80;;;;;;6216392;23;20025;-80
2023/09/30 12:12:04;;;;;;;9.07;6.03;;;28.50;50.80;;;;;;6216544;23;20007;-80
2023/09/30 12:14:31;;;;;;;12.70;7.00;;;28.60;50.90;;;;;;6216932;23;20005;-78
2023/09/30 12:16:57;;;;;;;24.42;12.63;;;28.70;50.70;;;;;;6217183;23;20008;-80
2023/09/30 12:19:22;;;;;;;14.20;7.40;;;28.80;50.70;;;;;;6217078;23;20001;-79
2023/09/30 12:21:48;;;;;;;9.32;6.72;;;28.90;50.50;;;;;;6216814;23;20331;-80
2023/09/30 12:24:21;;;;;;;13.27;7.00;;;28.90;50.60;;;;;;6216494;23;19997;-77
2023/09/30 12:26:48;;;;;;;15.48;7.60;;;28.90;50.60;;;;;;6189816;23;20012;-79
2023/09/30 12:29:21;;;;;;;15.98;7.93;;;28.90;50.30;;;;;;6216404;23;20284;-79
2023/09/30 12:31:52;;;;;;;12.38;7.32;;;28.90;50.70;;;;;;6216155;23;20079;-79
2023/09/30 12:34:18;;;;;;;12.52;7.00;;;28.90;50.90;;;;;;6216610;23;20011;-79
2023/09/30 12:36:44;;;;;;;10.73;6.80;;;29.00;51.00;;;;;;6216611;23;20032;-80
2023/09/30 12:39:16;;;;;;;11.75;7.70;;;29.10;50.90;;;;;;6216092;23;20000;-79
2023/09/30 12:41:43;;;;;;;13.27;6.93;;;29.10;50.10;;;;;;6216186;23;20005;-79